Time,TemperatureF,DewpointF,PressureIn,WindDirection,WindDirectionDegrees,WindSpeedMPH,WindSpeedGustMPH,Humidity,HourlyPrecipIn,Conditions,Clouds,dailyrainin,SoftwareType,DateUTC
2013-03-04 00:03:00,29.0,23.9,29.92,WNW,293,2.5,4.7,81,0.00,,,0.00,WUHU216HW,2013-03-04 07:03:00,
2013-03-04 00:13:00,29.2,23.8,29.92,NW,315,1.1,4.7,80,0.00,,,0.00,WUHU216HW,2013-03-04 07:13:00,
2013-03-04 00:23:00,29.3,23.7,29.92,North,0,1.3,2.0,79,0.00,,,0.00,WUHU216HW,2013-03-04 07:23:00,
2013-03-04 00:33:00,29.5,23.5,29.93,ENE,68,0.4,1.6,78,0.00,,,0.00,WUHU216HW,2013-03-04 07:33:00,
2013-03-04 00:43:00,29.7,23.3,29.93,NNE,23,1.3,1.3,77,0.00,,,0.00,WUHU216HW,2013-03-04 07:43:00,
2013-03-04 00:53:00,29.9,23.5,29.93,NE,45,0.4,1.1,77,0.00,,,0.00,WUHU216HW,2013-03-04 07:53:00,
2013-03-04 01:03:00,29.9,23.2,29.93,NNE,23,1.1,3.1,76,0.00,,,0.00,WUHU216HW,2013-03-04 08:03:00,
2013-03-04 01:13:00,29.9,23.2,29.94,WNW,293,6.3,6.3,76,0.00,,,0.00,WUHU216HW,2013-03-04 08:13:00,
2013-03-04 01:23:00,29.5,23.1,29.94,NNE,23,6.3,6.3,77,0.00,,,0.00,WUHU216HW,2013-03-04 08:23:00,
2013-03-04 01:33:00,29.2,23.1,29.94,North,0,5.1,6.0,78,0.00,,,0.00,WUHU216HW,2013-03-04 08:33:00,
2013-03-04 01:43:00,29.2,22.5,29.95,North,0,4.5,9.8,76,0.00,,,0.00,WUHU216HW,2013-03-04 08:43:00,
2013-03-04 01:53:00,29.2,22.2,29.96,NNW,338,4.3,6.5,75,0.00,,,0.00,WUHU216HW,2013-03-04 08:53:00,
2013-03-04 02:03:00,29.2,21.9,29.96,North,0,1.1,5.6,74,0.00,,,0.00,WUHU216HW,2013-03-04 09:03:00,
2013-03-04 02:13:00,29.2,21.6,29.97,North,0,4.0,6.3,73,0.00,,,0.00,WUHU216HW,2013-03-04 09:13:00,
2013-03-04 02:23:00,29.2,21.6,29.97,North,0,1.6,5.4,73,0.00,,,0.00,WUHU216HW,2013-03-04 09:23:00,
2013-03-04 02:33:00,29.2,21.6,29.97,NNE,23,2.0,2.7,73,0.00,,,0.00,WUHU216HW,2013-03-04 09:33:00,
2013-03-04 02:43:00,29.3,21.8,29.98,North,0,1.8,1.8,73,0.00,,,0.00,WUHU216HW,2013-03-04 09:43:00,
2013-03-04 02:53:00,29.3,21.8,29.98,North,0,0.4,1.8,73,0.00,,,0.00,WUHU216HW,2013-03-04 09:53:00,
2013-03-04 03:04:00,29.3,21.8,29.98,North,0,0.0,1.8,73,0.00,,,0.00,WUHU216HW,2013-03-04 10:04:00,
2013-03-04 03:14:00,29.3,21.8,29.98,NE,45,1.8,4.5,73,0.00,,,0.00,WUHU216HW,2013-03-04 10:14:00,
2013-03-04 03:24:00,29.2,21.2,29.99,NNE,23,2.5,3.4,72,0.00,,,0.00,WUHU216HW,2013-03-04 10:24:00,
2013-03-04 03:34:00,29.2,21.2,29.99,North,0,1.8,3.1,72,0.00,,,0.00,WUHU216HW,2013-03-04 10:34:00,
2013-03-04 03:44:00,29.2,21.6,29.99,NE,45,0.9,2.9,73,0.00,,,0.00,WUHU216HW,2013-03-04 10:44:00,
2013-03-04 03:54:00,29.2,21.6,30.00,NNE,23,1.1,1.8,73,0.00,,,0.00,WUHU216HW,2013-03-04 10:54:00,
2013-03-04 04:04:00,29.0,21.4,30.00,NE,45,0.4,4.0,73,0.00,,,0.00,WUHU216HW,2013-03-04 11:04:00,
2013-03-04 04:14:00,28.8,21.3,30.00,ESE,113,1.3,1.3,73,0.00,,,0.00,WUHU216HW,2013-03-04 11:14:00,
2013-03-04 04:24:00,28.6,21.1,30.01,ESE,113,1.1,1.8,73,0.00,,,0.00,WUHU216HW,2013-03-04 11:24:00,
2013-03-04 04:34:00,28.4,20.9,30.01,SE,135,0.4,1.1,73,0.00,,,0.00,WUHU216HW,2013-03-04 11:34:00,
2013-03-04 04:44:00,27.9,20.1,30.01,SE,135,1.8,1.8,72,0.00,,,0.00,WUHU216HW,2013-03-04 11:44:00,
2013-03-04 04:54:00,27.5,19.7,30.02,ESE,113,1.6,2.7,72,0.00,,,0.00,WUHU216HW,2013-03-04 11:54:00,
2013-03-04 05:04:00,27.0,19.2,30.02,ESE,113,0.4,2.0,72,0.00,,,0.00,WUHU216HW,2013-03-04 12:04:00,
2013-03-04 05:14:00,26.8,19.0,30.02,SE,135,0.0,0.7,72,0.00,,,0.00,WUHU216HW,2013-03-04 12:14:00,
2013-03-04 05:24:00,26.5,18.6,30.02,East,90,0.2,1.1,72,0.00,,,0.00,WUHU216HW,2013-03-04 12:24:00,
2013-03-04 05:34:00,26.5,18.9,30.02,NNE,23,0.0,1.1,73,0.00,,,0.00,WUHU216HW,2013-03-04 12:34:00,
2013-03-04 05:44:00,26.5,18.9,30.02,North,0,0.0,0.2,73,0.00,,,0.00,WUHU216HW,2013-03-04 12:44:00,
2013-03-04 05:54:00,26.3,18.7,30.03,NW,315,0.4,1.1,73,0.00,,,0.00,WUHU216HW,2013-03-04 12:54:00,
2013-03-04 06:04:00,25.7,18.3,30.03,East,90,0.0,0.4,73,0.00,,,0.00,WUHU216HW,2013-03-04 13:04:00,
2013-03-04 06:14:00,25.6,18.1,30.03,WNW,293,0.2,0.7,73,0.00,,,0.00,WUHU216HW,2013-03-04 13:14:00,
2013-03-04 06:24:00,24.8,17.4,30.03,SW,225,0.0,0.4,73,0.00,,,0.00,WUHU216HW,2013-03-04 13:24:00,
2013-03-04 06:34:00,24.3,17.2,30.04,WSW,248,0.0,1.6,74,0.00,,,0.00,WUHU216HW,2013-03-04 13:34:00,
2013-03-04 06:44:00,23.9,16.8,30.04,WNW,293,0.4,0.4,74,0.00,,,0.00,WUHU216HW,2013-03-04 13:44:00,
2013-03-04 06:54:00,23.8,17.0,30.04,SW,225,0.0,0.4,75,0.00,,,0.00,WUHU216HW,2013-03-04 13:54:00,
2013-03-04 07:04:00,23.4,16.7,30.05,SW,225,1.1,2.0,75,0.00,,,0.00,WUHU216HW,2013-03-04 14:04:00,
2013-03-04 07:14:00,23.0,16.3,30.05,SW,225,1.1,1.8,75,0.00,,,0.00,WUHU216HW,2013-03-04 14:14:00,
2013-03-04 07:24:00,22.7,15.9,30.05,ESE,113,0.2,1.8,75,0.00,,,0.00,WUHU216HW,2013-03-04 14:24:00,
2013-03-04 07:34:00,22.7,16.2,30.06,WSW,248,0.7,0.7,76,0.00,,,0.00,WUHU216HW,2013-03-04 14:34:00,
2013-03-04 07:44:00,23.0,16.9,30.06,NW,315,0.0,1.1,77,0.00,,,0.00,WUHU216HW,2013-03-04 14:44:00,
2013-03-04 07:54:00,23.4,17.3,30.06,SSW,203,0.4,0.4,77,0.00,,,0.00,WUHU216HW,2013-03-04 14:54:00,
2013-03-04 08:05:00,23.8,17.7,30.06,SSW,203,0.2,0.7,77,0.00,,,0.00,WUHU216HW,2013-03-04 15:05:00,
2013-03-04 08:15:00,24.1,17.7,30.07,South,180,0.0,0.7,76,0.01,,,0.00,WUHU216HW,2013-03-04 15:15:00,
2013-03-04 08:25:00,24.5,18.0,30.07,ESE,113,0.7,0.7,76,0.02,,,0.02,WUHU216HW,2013-03-04 15:25:00,
2013-03-04 08:35:00,25.0,18.5,30.07,SE,135,0.0,1.1,76,0.03,,,0.03,WUHU216HW,2013-03-04 15:35:00,
2013-03-04 08:45:00,25.6,18.7,30.07,West,270,0.0,0.4,75,0.03,,,0.03,WUHU216HW,2013-03-04 15:45:00,
2013-03-04 08:55:00,25.6,18.7,30.07,WNW,293,1.3,1.3,75,0.03,,,0.03,WUHU216HW,2013-03-04 15:55:00,
2013-03-04 09:05:00,25.2,18.4,30.07,NW,315,1.3,2.5,75,0.03,,,0.03,WUHU216HW,2013-03-04 16:05:00,
2013-03-04 09:15:00,25.4,18.6,30.08,North,0,1.1,1.6,75,0.02,,,0.03,WUHU216HW,2013-03-04 16:15:00,
2013-03-04 09:25:00,25.6,18.7,30.08,West,270,1.3,1.3,75,0.00,,,0.03,WUHU216HW,2013-03-04 16:25:00,
2013-03-04 09:35:00,26.3,19.4,30.08,North,0,2.2,2.5,75,0.00,,,0.03,WUHU216HW,2013-03-04 16:35:00,
2013-03-04 09:45:00,26.8,19.3,30.08,NNE,23,2.9,3.1,73,0.00,,,0.03,WUHU216HW,2013-03-04 16:45:00,
2013-03-04 09:55:00,27.2,19.6,30.08,North,0,2.2,2.5,73,0.00,,,0.03,WUHU216HW,2013-03-04 16:55:00,
2013-03-04 10:05:00,27.7,20.5,30.08,North,0,1.1,2.7,74,0.00,,,0.03,WUHU216HW,2013-03-04 17:05:00,
2013-03-04 10:15:00,28.1,20.5,30.09,North,0,1.1,2.5,73,0.00,,,0.03,WUHU216HW,2013-03-04 17:15:00,
2013-03-04 10:25:00,28.4,20.6,30.09,North,0,1.6,2.9,72,0.00,,,0.03,WUHU216HW,2013-03-04 17:25:00,
2013-03-04 10:35:00,28.6,20.8,30.09,North,0,2.5,2.7,72,0.00,,,0.03,WUHU216HW,2013-03-04 17:35:00,
2013-03-04 10:45:00,29.2,21.2,30.09,NNW,338,1.3,2.7,72,0.00,,,0.03,WUHU216HW,2013-03-04 17:45:00,
2013-03-04 10:55:00,29.7,21.4,30.09,NNE,23,1.3,3.1,71,0.00,,,0.03,WUHU216HW,2013-03-04 17:55:00,
2013-03-04 11:05:00,30.6,22.0,30.10,North,0,2.2,2.2,70,0.00,,,0.03,WUHU216HW,2013-03-04 18:05:00,
2013-03-04 11:15:00,31.3,22.3,30.09,NW,315,2.5,3.1,69,0.00,,,0.03,WUHU216HW,2013-03-04 18:15:00,
2013-03-04 11:25:00,31.7,21.6,30.09,NE,45,1.1,5.4,66,0.00,,,0.03,WUHU216HW,2013-03-04 18:25:00,
2013-03-04 11:35:00,32.6,22.4,30.08,NNE,23,1.1,3.8,66,0.00,,,0.03,WUHU216HW,2013-03-04 18:35:00,
2013-03-04 11:45:00,32.8,21.5,30.08,NE,45,1.8,3.1,63,0.00,,,0.03,WUHU216HW,2013-03-04 18:45:00,
2013-03-04 11:55:00,32.9,21.3,30.08,NE,45,3.8,4.7,62,0.00,,,0.03,WUHU216HW,2013-03-04 18:55:00,
2013-03-04 12:05:00,33.5,21.8,30.08,NNW,338,2.5,5.4,62,0.00,,,0.03,WUHU216HW,2013-03-04 19:05:00,
2013-03-04 12:15:00,34.0,21.6,30.08,NNE,23,5.4,5.4,60,0.00,,,0.03,WUHU216HW,2013-03-04 19:15:00,
2013-03-04 12:25:00,34.7,21.9,30.08,NNE,23,2.0,5.8,59,0.00,,,0.03,WUHU216HW,2013-03-04 19:25:00,
2013-03-04 12:35:00,35.1,21.8,30.08,NNE,23,4.7,5.1,58,0.00,,,0.03,WUHU216HW,2013-03-04 19:35:00,
2013-03-04 12:45:00,34.9,20.8,30.08,SW,225,0.4,5.8,56,0.00,,,0.03,WUHU216HW,2013-03-04 19:45:00,
2013-03-04 12:56:00,35.3,22.0,30.08,West,270,1.1,5.4,58,0.00,,,0.03,WUHU216HW,2013-03-04 19:56:00,
2013-03-04 13:06:00,35.6,21.1,30.07,North,0,4.0,6.3,55,0.00,,,0.03,WUHU216HW,2013-03-04 20:06:00,
2013-03-04 13:16:00,36.4,20.9,30.07,NNE,23,3.8,5.4,53,0.00,,,0.03,WUHU216HW,2013-03-04 20:16:00,
2013-03-04 13:26:00,37.1,20.6,30.06,NE,45,4.7,6.3,51,0.00,,,0.03,WUHU216HW,2013-03-04 20:26:00,
2013-03-04 13:36:00,37.1,19.7,30.06,NNE,23,4.0,7.6,49,0.00,,,0.03,WUHU216HW,2013-03-04 20:36:00,
2013-03-04 13:46:00,36.7,19.9,30.06,NE,45,4.0,9.2,50,0.00,,,0.03,WUHU216HW,2013-03-04 20:46:00,
2013-03-04 13:56:00,37.1,19.2,30.05,ENE,68,4.0,8.5,48,0.00,,,0.03,WUHU216HW,2013-03-04 20:56:00,
2013-03-04 14:06:00,36.9,18.5,30.04,North,0,2.9,6.9,47,0.00,,,0.03,WUHU216HW,2013-03-04 21:06:00,
2013-03-04 14:16:00,36.7,18.8,30.04,NNE,23,3.8,6.7,48,0.00,,,0.03,WUHU216HW,2013-03-04 21:16:00,
2013-03-04 14:26:00,36.0,18.2,30.04,NE,45,6.9,6.9,48,0.00,,,0.03,WUHU216HW,2013-03-04 21:26:00,
2013-03-04 14:36:00,35.8,18.0,30.03,NNE,23,3.6,7.8,48,0.00,,,0.03,WUHU216HW,2013-03-04 21:36:00,
2013-03-04 14:46:00,36.2,18.4,30.03,ENE,68,4.9,7.6,48,0.00,,,0.03,WUHU216HW,2013-03-04 21:46:00,
2013-03-04 14:56:00,36.5,17.7,30.02,East,90,6.5,6.9,46,0.00,,,0.03,WUHU216HW,2013-03-04 21:56:00,
2013-03-04 15:06:00,36.4,17.5,30.02,NE,45,6.7,7.6,46,0.00,,,0.03,WUHU216HW,2013-03-04 22:06:00,
2013-03-04 15:16:00,36.7,17.8,30.02,NNE,23,5.1,9.8,46,0.00,,,0.03,WUHU216HW,2013-03-04 22:16:00,
2013-03-04 15:26:00,37.1,17.6,30.02,East,90,4.3,11.6,45,0.00,,,0.03,WUHU216HW,2013-03-04 22:26:00,
2013-03-04 15:36:00,37.1,17.6,30.02,ENE,68,4.0,8.7,45,0.00,,,0.03,WUHU216HW,2013-03-04 22:36:00,
2013-03-04 15:46:00,37.3,17.7,30.01,NE,45,4.0,8.9,45,0.00,,,0.03,WUHU216HW,2013-03-04 22:46:00,
2013-03-04 15:56:00,37.3,17.2,30.01,NE,45,6.5,8.3,44,0.00,,,0.03,WUHU216HW,2013-03-04 22:56:00,
2013-03-04 16:06:00,37.6,18.1,30.01,NE,45,3.8,6.5,45,0.00,,,0.03,WUHU216HW,2013-03-04 23:06:00,
2013-03-04 16:16:00,37.6,18.1,30.01,NE,45,4.7,7.4,45,0.00,,,0.03,WUHU216HW,2013-03-04 23:16:00,
2013-03-04 16:26:00,37.6,18.1,30.00,ENE,68,7.6,7.6,45,0.00,,,0.03,WUHU216HW,2013-03-04 23:26:00,
2013-03-04 16:36:00,37.1,17.6,30.01,NNE,23,1.1,6.9,45,0.00,,,0.03,WUHU216HW,2013-03-04 23:36:00,
2013-03-04 16:46:00,37.1,17.6,30.01,NNE,23,2.7,4.7,45,0.00,,,0.03,WUHU216HW,2013-03-04 23:46:00,
2013-03-04 16:56:00,37.1,17.6,30.00,North,0,4.3,4.3,45,0.00,,,0.03,WUHU216HW,2013-03-04 23:56:00,
2013-03-04 17:06:00,37.1,18.1,30.00,ESE,113,0.0,2.5,46,0.00,,,0.03,WUHU216HW,2013-03-05 00:06:00,
2013-03-04 17:16:00,37.3,18.3,30.00,NNW,338,0.4,1.6,46,0.00,,,0.03,WUHU216HW,2013-03-05 00:16:00,
2013-03-04 17:26:00,37.1,17.6,30.00,NNE,23,2.5,5.4,45,0.00,,,0.03,WUHU216HW,2013-03-05 00:26:00,
2013-03-04 17:36:00,36.7,17.8,29.99,ENE,68,0.4,4.5,46,0.00,,,0.03,WUHU216HW,2013-03-05 00:36:00,
2013-03-04 17:46:00,36.9,17.9,29.99,East,90,1.8,2.0,46,0.00,,,0.03,WUHU216HW,2013-03-05 00:46:00,
2013-03-04 17:56:00,36.5,17.7,29.99,ENE,68,0.7,2.5,46,0.00,,,0.03,WUHU216HW,2013-03-05 00:56:00,
2013-03-04 18:06:00,36.0,17.1,29.99,East,90,6.3,6.3,46,0.00,,,0.03,WUHU216HW,2013-03-05 01:06:00,
2013-03-04 18:16:00,35.3,16.5,29.99,East,90,6.5,6.7,46,0.00,,,0.03,WUHU216HW,2013-03-05 01:16:00,
2013-03-04 18:26:00,34.9,16.7,29.99,NE,45,2.0,6.3,47,0.00,,,0.03,WUHU216HW,2013-03-05 01:26:00,
2013-03-04 18:37:00,35.1,17.8,30.00,SSE,158,3.6,4.0,49,0.00,,,0.03,WUHU216HW,2013-03-05 01:37:00,
2013-03-04 18:47:00,34.9,18.2,30.00,SSE,158,4.7,4.7,50,0.00,,,0.03,WUHU216HW,2013-03-05 01:47:00,
2013-03-04 18:57:00,34.7,18.0,29.99,SE,135,4.0,4.3,50,0.00,,,0.03,WUHU216HW,2013-03-05 01:57:00,
2013-03-04 19:07:00,34.7,18.0,29.99,SSW,203,2.9,4.0,50,0.00,,,0.03,WUHU216HW,2013-03-05 02:07:00,
2013-03-04 19:17:00,34.7,18.0,29.99,SW,225,1.1,3.1,50,0.00,,,0.03,WUHU216HW,2013-03-05 02:17:00,
2013-03-04 19:27:00,34.7,18.0,30.00,NNW,338,0.4,3.8,50,0.00,,,0.03,WUHU216HW,2013-03-05 02:27:00,
2013-03-04 19:37:00,34.2,17.5,29.99,WSW,248,2.5,4.0,50,0.00,,,0.03,WUHU216HW,2013-03-05 02:37:00,
2013-03-04 19:47:00,33.8,17.6,29.98,WSW,248,1.8,2.5,51,0.00,,,0.03,WUHU216HW,2013-03-05 02:47:00,
2013-03-04 19:57:00,33.5,17.2,29.99,NNE,23,0.0,1.8,51,0.00,,,0.03,WUHU216HW,2013-03-05 02:57:00,
2013-03-04 20:07:00,33.5,17.2,29.98,SW,225,1.3,1.6,51,0.00,,,0.03,WUHU216HW,2013-03-05 03:07:00,
2013-03-04 20:17:00,32.9,17.2,29.99,SW,225,3.1,3.6,52,0.00,,,0.03,WUHU216HW,2013-03-05 03:17:00,
2013-03-04 20:27:00,32.6,16.8,29.99,WSW,248,2.7,4.0,52,0.00,,,0.03,WUHU216HW,2013-03-05 03:27:00,
2013-03-04 20:37:00,32.4,16.7,29.98,SW,225,1.8,2.9,52,0.00,,,0.03,WUHU216HW,2013-03-05 03:37:00,
2013-03-04 20:47:00,32.4,17.1,29.98,SSW,203,2.7,2.9,53,0.00,,,0.03,WUHU216HW,2013-03-05 03:47:00,
2013-03-04 20:57:00,31.9,16.2,29.97,SSW,203,2.2,2.9,52,0.00,,,0.03,WUHU216HW,2013-03-05 03:57:00,
2013-03-04 21:07:00,31.9,16.7,29.97,SW,225,1.8,2.5,53,0.00,,,0.03,WUHU216HW,2013-03-05 04:07:00,
2013-03-04 21:17:00,31.5,16.3,29.97,SW,225,0.9,4.5,53,0.00,,,0.03,WUHU216HW,2013-03-05 04:17:00,
2013-03-04 21:27:00,31.3,16.1,29.97,WSW,248,2.5,2.5,53,0.00,,,0.03,WUHU216HW,2013-03-05 04:27:00,
2013-03-04 21:37:00,31.3,16.1,29.98,SW,225,1.3,2.5,53,0.00,,,0.03,WUHU216HW,2013-03-05 04:37:00,
2013-03-04 21:47:00,31.3,16.1,29.98,SW,225,0.2,1.3,53,0.00,,,0.03,WUHU216HW,2013-03-05 04:47:00,
2013-03-04 21:57:00,31.3,16.1,29.98,SSW,203,0.0,0.7,53,0.00,,,0.03,WUHU216HW,2013-03-05 04:57:00,
2013-03-04 22:07:00,31.0,15.8,29.98,SW,225,0.4,0.4,53,0.00,,,0.03,WUHU216HW,2013-03-05 05:07:00,
2013-03-04 22:17:00,31.0,15.8,29.97,SSW,203,1.1,1.1,53,0.00,,,0.03,WUHU216HW,2013-03-05 05:17:00,
2013-03-04 22:27:00,30.6,15.5,29.97,WNW,293,0.2,2.0,53,0.00,,,0.03,WUHU216HW,2013-03-05 05:27:00,
2013-03-04 22:37:00,30.6,15.8,29.97,WNW,293,0.0,0.4,54,0.00,,,0.03,WUHU216HW,2013-03-05 05:37:00,
2013-03-04 22:47:00,30.6,15.8,29.97,SE,135,0.2,0.4,54,0.00,,,0.03,WUHU216HW,2013-03-05 05:47:00,
2013-03-04 22:57:00,30.1,15.4,29.97,SE,135,0.9,1.1,54,0.00,,,0.03,WUHU216HW,2013-03-05 05:57:00,
2013-03-04 23:07:00,29.2,14.6,29.96,SE,135,1.1,1.8,54,0.00,,,0.03,WUHU216HW,2013-03-05 06:07:00,
2013-03-04 23:17:00,28.4,14.3,29.96,SSE,158,0.0,1.1,55,0.00,,,0.03,WUHU216HW,2013-03-05 06:17:00,
2013-03-04 23:27:00,27.7,14.1,29.97,South,180,0.0,0.4,56,0.00,,,0.03,WUHU216HW,2013-03-05 06:27:00,
2013-03-04 23:38:00,27.2,13.5,29.97,SSE,158,0.7,1.1,56,0.00,,,0.03,WUHU216HW,2013-03-05 06:38:00,
2013-03-04 23:48:00,26.8,13.5,29.97,ESE,113,1.1,1.1,57,0.00,,,0.03,WUHU216HW,2013-03-05 06:48:00,
2013-03-04 23:58:00,26.5,13.1,29.96,SE,135,0.4,1.6,57,0.00,,,0.03,WUHU216HW,2013-03-05 06:58:00,